sensor_id;sensor_type;location;lat;lon;timestamp;temperature;humidity
40822;DHT22;26542;50.836;5.356;2022-12-11T00:00:21;2.70;99.90
40822;DHT22;26542;50.836;5.356;2022-12-11T00:02:50;2.70;99.90
40822;DHT22;26542;50.836;5.356;2022-12-11T00:05:16;2.70;99.90
40822;DHT22;26542;50.836;5.356;2022-12-11T00:07:42;2.90;99.90
40822;DHT22;26542;50.836;5.356;2022-12-11T00:10:08;2.80;99.90
40822;DHT22;26542;50.836;5.356;2022-12-11T00:12:33;2.60;99.90
40822;DHT22;26542;50.836;5.356;2022-12-11T00:15:00;2.80;99.90
40822;DHT22;26542;50.836;5.356;2022-12-11T00:17:26;3.00;99.90
40822;DHT22;26542;50.836;5.356;2022-12-11T00:19:52;2.80;99.90
40822;DHT22;26542;50.836;5.356;2022-12-11T00:22:17;2.90;99.90
40822;DHT22;26542;50.836;5.356;2022-12-11T00:24:43;2.90;99.90
40822;DHT22;26542;50.836;5.356;2022-12-11T00:27:09;3.00;99.90
40822;DHT22;26542;50.836;5.356;2022-12-11T00:29:36;3.00;99.90
40822;DHT22;26542;50.836;5.356;2022-12-11T00:32:01;3.20;99.90
40822;DHT22;26542;50.836;5.356;2022-12-11T00:34:27;3.00;99.90
40822;DHT22;26542;50.836;5.356;2022-12-11T00:36:56;3.10;99.90
40822;DHT22;26542;50.836;5.356;2022-12-11T00:39:23;3.10;99.90
40822;DHT22;26542;50.836;5.356;2022-12-11T00:41:49;3.10;99.90
40822;DHT22;26542;50.836;5.356;2022-12-11T00:44:15;3.10;99.90
40822;DHT22;26542;50.836;5.356;2022-12-11T00:46:43;3.10;99.90
40822;DHT22;26542;50.836;5.356;2022-12-11T00:49:09;3.00;99.90
40822;DHT22;26542;50.836;5.356;2022-12-11T00:51:35;3.00;99.90
40822;DHT22;26542;50.836;5.356;2022-12-11T00:54:03;3.00;99.90
40822;DHT22;26542;50.836;5.356;2022-12-11T00:56:30;2.90;99.90
40822;DHT22;26542;50.836;5.356;2022-12-11T00:58:57;3.00;99.90
40822;DHT22;26542;50.836;5.356;2022-12-11T01:01:25;3.20;99.90
40822;DHT22;26542;50.836;5.356;2022-12-11T01:03:52;2.80;99.90
40822;DHT22;26542;50.836;5.356;2022-12-11T01:06:22;2.90;99.90
40822;DHT22;26542;50.836;5.356;2022-12-11T01:08:53;3.00;99.90
40822;DHT22;26542;50.836;5.356;2022-12-11T01:11:42;3.00;99.90
40822;DHT22;26542;50.836;5.356;2022-12-11T01:14:09;3.00;99.90
40822;DHT22;26542;50.836;5.356;2022-12-11T01:16:35;2.90;99.90
40822;DHT22;26542;50.836;5.356;2022-12-11T01:19:02;2.90;99.90
40822;DHT22;26542;50.836;5.356;2022-12-11T01:21:28;3.00;99.90
40822;DHT22;26542;50.836;5.356;2022-12-11T01:23:56;2.80;99.90
40822;DHT22;26542;50.836;5.356;2022-12-11T01:26:21;2.80;99.90
40822;DHT22;26542;50.836;5.356;2022-12-11T01:28:51;2.80;99.90
40822;DHT22;26542;50.836;5.356;2022-12-11T01:31:19;2.90;99.90
40822;DHT22;26542;50.836;5.356;2022-12-11T01:33:48;2.90;99.90
40822;DHT22;26542;50.836;5.356;2022-12-11T01:36:16;3.00;99.90
40822;DHT22;26542;50.836;5.356;2022-12-11T01:38:44;3.00;99.90
40822;DHT22;26542;50.836;5.356;2022-12-11T01:41:12;3.00;99.90
40822;DHT22;26542;50.836;5.356;2022-12-11T01:46:23;3.40;99.90
40822;DHT22;26542;50.836;5.356;2022-12-11T01:48:49;3.40;99.90
40822;DHT22;26542;50.836;5.356;2022-12-11T01:51:16;3.10;99.90
40822;DHT22;26542;50.836;5.356;2022-12-11T01:53:49;2.90;99.90
40822;DHT22;26542;50.836;5.356;2022-12-11T01:56:17;2.80;99.90
40822;DHT22;26542;50.836;5.356;2022-12-11T01:58:48;2.80;99.90
40822;DHT22;26542;50.836;5.356;2022-12-11T02:01:44;2.90;99.90
40822;DHT22;26542;50.836;5.356;2022-12-11T02:04:12;2.90;99.90
40822;DHT22;26542;50.836;5.356;2022-12-11T02:06:41;2.80;99.90
40822;DHT22;26542;50.836;5.356;2022-12-11T02:09:11;2.90;99.90
40822;DHT22;26542;50.836;5.356;2022-12-11T02:12:00;3.00;99.90
40822;DHT22;26542;50.836;5.356;2022-12-11T02:14:44;2.80;99.90
40822;DHT22;26542;50.836;5.356;2022-12-11T02:17:28;2.90;99.90
40822;DHT22;26542;50.836;5.356;2022-12-11T02:20:28;2.80;99.90
40822;DHT22;26542;50.836;5.356;2022-12-11T02:31:09;2.90;99.90
40822;DHT22;26542;50.836;5.356;2022-12-11T02:33:49;2.80;99.90
40822;DHT22;26542;50.836;5.356;2022-12-11T02:36:20;2.90;99.90
40822;DHT22;26542;50.836;5.356;2022-12-11T02:38:50;2.80;99.90
40822;DHT22;26542;50.836;5.356;2022-12-11T02:41:19;2.90;99.90
40822;DHT22;26542;50.836;5.356;2022-12-11T02:43:46;2.80;99.90
40822;DHT22;26542;50.836;5.356;2022-12-11T02:46:17;3.10;99.90
40822;DHT22;26542;50.836;5.356;2022-12-11T02:48:45;3.00;99.90
40822;DHT22;26542;50.836;5.356;2022-12-11T02:51:16;2.60;99.90
40822;DHT22;26542;50.836;5.356;2022-12-11T02:53:43;2.50;99.90
40822;DHT22;26542;50.836;5.356;2022-12-11T02:56:13;2.70;99.90
40822;DHT22;26542;50.836;5.356;2022-12-11T02:58:47;2.50;99.90
40822;DHT22;26542;50.836;5.356;2022-12-11T03:01:16;3.30;99.90
40822;DHT22;26542;50.836;5.356;2022-12-11T03:03:44;2.60;99.90
40822;DHT22;26542;50.836;5.356;2022-12-11T03:06:19;2.60;99.90
40822;DHT22;26542;50.836;5.356;2022-12-11T03:08:46;2.60;99.90
40822;DHT22;26542;50.836;5.356;2022-12-11T03:11:12;2.60;99.90
40822;DHT22;26542;50.836;5.356;2022-12-11T03:13:40;2.80;99.90
40822;DHT22;26542;50.836;5.356;2022-12-11T03:18:53;2.90;99.90
40822;DHT22;26542;50.836;5.356;2022-12-11T03:24:21;2.80;99.90
40822;DHT22;26542;50.836;5.356;2022-12-11T03:26:57;2.70;99.90
40822;DHT22;26542;50.836;5.356;2022-12-11T03:29:54;2.70;99.90
40822;DHT22;26542;50.836;5.356;2022-12-11T03:32:25;2.70;99.90
40822;DHT22;26542;50.836;5.356;2022-12-11T03:37:18;3.00;99.90
40822;DHT22;26542;50.836;5.356;2022-12-11T03:39:51;2.60;99.90
40822;DHT22;26542;50.836;5.356;2022-12-11T03:42:20;2.60;99.90
40822;DHT22;26542;50.836;5.356;2022-12-11T03:44:48;2.60;99.90
40822;DHT22;26542;50.836;5.356;2022-12-11T03:47:20;2.60;99.90
40822;DHT22;26542;50.836;5.356;2022-12-11T03:49:47;2.70;99.90
40822;DHT22;26542;50.836;5.356;2022-12-11T03:52:14;3.00;99.90
40822;DHT22;26542;50.836;5.356;2022-12-11T03:54:45;2.80;99.90
40822;DHT22;26542;50.836;5.356;2022-12-11T03:57:15;2.90;99.90
40822;DHT22;26542;50.836;5.356;2022-12-11T03:59:43;2.80;99.90
40822;DHT22;26542;50.836;5.356;2022-12-11T04:02:09;2.70;99.90
40822;DHT22;26542;50.836;5.356;2022-12-11T04:04:39;2.70;99.90
40822;DHT22;26542;50.836;5.356;2022-12-11T04:07:06;2.60;99.90
40822;DHT22;26542;50.836;5.356;2022-12-11T04:09:36;2.70;99.90
40822;DHT22;26542;50.836;5.356;2022-12-11T04:12:02;2.50;99.90
40822;DHT22;26542;50.836;5.356;2022-12-11T04:14:28;2.40;99.90
40822;DHT22;26542;50.836;5.356;2022-12-11T04:17:12;2.40;99.90
40822;DHT22;26542;50.836;5.356;2022-12-11T04:19:58;2.60;99.90
40822;DHT22;26542;50.836;5.356;2022-12-11T04:22:42;2.50;99.90
40822;DHT22;26542;50.836;5.356;2022-12-11T04:25:26;2.60;99.90
40822;DHT22;26542;50.836;5.356;2022-12-11T04:27:52;2.60;99.90
40822;DHT22;26542;50.836;5.356;2022-12-11T04:30:21;2.60;99.90
40822;DHT22;26542;50.836;5.356;2022-12-11T04:32:47;2.70;99.90
40822;DHT22;26542;50.836;5.356;2022-12-11T04:35:13;2.80;99.90
40822;DHT22;26542;50.836;5.356;2022-12-11T04:37:40;2.70;99.90
40822;DHT22;26542;50.836;5.356;2022-12-11T04:40:08;2.60;99.90
40822;DHT22;26542;50.836;5.356;2022-12-11T04:42:35;2.70;99.90
40822;DHT22;26542;50.836;5.356;2022-12-11T04:45:03;2.70;99.90
40822;DHT22;26542;50.836;5.356;2022-12-11T04:47:28;2.70;99.90
40822;DHT22;26542;50.836;5.356;2022-12-11T04:49:55;2.70;99.90
40822;DHT22;26542;50.836;5.356;2022-12-11T04:52:20;2.70;99.90
40822;DHT22;26542;50.836;5.356;2022-12-11T04:54:46;2.80;99.90
40822;DHT22;26542;50.836;5.356;2022-12-11T04:57:12;2.80;99.90
40822;DHT22;26542;50.836;5.356;2022-12-11T04:59:41;2.90;99.90
40822;DHT22;26542;50.836;5.356;2022-12-11T05:02:06;3.00;99.90
40822;DHT22;26542;50.836;5.356;2022-12-11T05:04:34;3.10;99.90
40822;DHT22;26542;50.836;5.356;2022-12-11T05:07:00;3.00;99.90
40822;DHT22;26542;50.836;5.356;2022-12-11T05:09:27;3.00;99.90
40822;DHT22;26542;50.836;5.356;2022-12-11T05:11:53;3.10;99.90
40822;DHT22;26542;50.836;5.356;2022-12-11T05:14:19;3.00;99.90
40822;DHT22;26542;50.836;5.356;2022-12-11T05:16:45;2.90;99.90
40822;DHT22;26542;50.836;5.356;2022-12-11T05:19:16;2.90;99.90
40822;DHT22;26542;50.836;5.356;2022-12-11T05:21:41;2.90;99.90
40822;DHT22;26542;50.836;5.356;2022-12-11T05:24:10;3.20;99.90
40822;DHT22;26542;50.836;5.356;2022-12-11T05:26:38;2.80;99.90
40822;DHT22;26542;50.836;5.356;2022-12-11T05:29:04;2.80;99.90
40822;DHT22;26542;50.836;5.356;2022-12-11T05:31:30;2.90;99.90
40822;DHT22;26542;50.836;5.356;2022-12-11T05:33:58;2.90;99.90
40822;DHT22;26542;50.836;5.356;2022-12-11T05:36:27;2.90;99.90
40822;DHT22;26542;50.836;5.356;2022-12-11T05:38:56;2.80;99.90
40822;DHT22;26542;50.836;5.356;2022-12-11T05:41:24;2.90;99.90
40822;DHT22;26542;50.836;5.356;2022-12-11T05:43:50;2.90;99.90
40822;DHT22;26542;50.836;5.356;2022-12-11T05:46:19;3.00;99.90
40822;DHT22;26542;50.836;5.356;2022-12-11T05:48:47;2.90;99.90
40822;DHT22;26542;50.836;5.356;2022-12-11T05:51:16;2.90;99.90
40822;DHT22;26542;50.836;5.356;2022-12-11T05:53:43;2.90;99.90
40822;DHT22;26542;50.836;5.356;2022-12-11T05:56:30;2.80;99.90
40822;DHT22;26542;50.836;5.356;2022-12-11T05:59:04;2.70;99.90
40822;DHT22;26542;50.836;5.356;2022-12-11T06:01:39;2.70;99.90
40822;DHT22;26542;50.836;5.356;2022-12-11T06:04:06;2.80;99.90
40822;DHT22;26542;50.836;5.356;2022-12-11T06:06:33;2.90;99.90
40822;DHT22;26542;50.836;5.356;2022-12-11T06:08:59;3.00;99.90
40822;DHT22;26542;50.836;5.356;2022-12-11T06:11:33;3.00;99.90
40822;DHT22;26542;50.836;5.356;2022-12-11T06:14:02;2.90;99.90
40822;DHT22;26542;50.836;5.356;2022-12-11T06:16:28;2.90;99.90
40822;DHT22;26542;50.836;5.356;2022-12-11T06:18:54;3.10;99.90
40822;DHT22;26542;50.836;5.356;2022-12-11T06:21:26;3.00;99.90
40822;DHT22;26542;50.836;5.356;2022-12-11T06:23:56;3.00;99.90
40822;DHT22;26542;50.836;5.356;2022-12-11T06:26:22;3.00;99.90
40822;DHT22;26542;50.836;5.356;2022-12-11T06:28:48;3.00;99.90
40822;DHT22;26542;50.836;5.356;2022-12-11T06:31:16;2.90;99.90
40822;DHT22;26542;50.836;5.356;2022-12-11T06:33:42;2.90;99.90
40822;DHT22;26542;50.836;5.356;2022-12-11T06:36:16;2.90;99.90
40822;DHT22;26542;50.836;5.356;2022-12-11T06:38:43;2.90;99.90
40822;DHT22;26542;50.836;5.356;2022-12-11T06:41:09;2.90;99.90
40822;DHT22;26542;50.836;5.356;2022-12-11T06:43:37;2.90;99.90
40822;DHT22;26542;50.836;5.356;2022-12-11T06:46:13;2.90;99.90
40822;DHT22;26542;50.836;5.356;2022-12-11T06:48:39;2.90;99.90
40822;DHT22;26542;50.836;5.356;2022-12-11T06:51:08;3.10;99.90
40822;DHT22;26542;50.836;5.356;2022-12-11T06:53:34;3.30;99.90
40822;DHT22;26542;50.836;5.356;2022-12-11T06:56:11;3.10;99.90
40822;DHT22;26542;50.836;5.356;2022-12-11T06:58:38;3.10;99.90
40822;DHT22;26542;50.836;5.356;2022-12-11T07:01:11;3.10;99.90
40822;DHT22;26542;50.836;5.356;2022-12-11T07:03:37;3.10;99.90
40822;DHT22;26542;50.836;5.356;2022-12-11T07:06:06;3.00;99.90
40822;DHT22;26542;50.836;5.356;2022-12-11T07:08:34;3.00;99.90
40822;DHT22;26542;50.836;5.356;2022-12-11T07:11:08;3.00;99.90
40822;DHT22;26542;50.836;5.356;2022-12-11T07:13:34;3.10;99.90
40822;DHT22;26542;50.836;5.356;2022-12-11T07:16:04;3.00;99.90
40822;DHT22;26542;50.836;5.356;2022-12-11T07:18:45;3.00;99.90
40822;DHT22;26542;50.836;5.356;2022-12-11T07:21:12;3.10;99.90
40822;DHT22;26542;50.836;5.356;2022-12-11T07:23:41;3.10;99.90
40822;DHT22;26542;50.836;5.356;2022-12-11T07:26:16;3.30;99.90
40822;DHT22;26542;50.836;5.356;2022-12-11T07:28:42;3.20;99.90
40822;DHT22;26542;50.836;5.356;2022-12-11T07:31:11;3.20;99.90
40822;DHT22;26542;50.836;5.356;2022-12-11T07:33:41;3.20;99.90
40822;DHT22;26542;50.836;5.356;2022-12-11T07:36:09;3.20;99.90
40822;DHT22;26542;50.836;5.356;2022-12-11T07:38:35;3.10;99.90
40822;DHT22;26542;50.836;5.356;2022-12-11T07:41:03;3.00;99.90
40822;DHT22;26542;50.836;5.356;2022-12-11T07:43:32;3.00;99.90
40822;DHT22;26542;50.836;5.356;2022-12-11T07:46:03;2.90;99.90
40822;DHT22;26542;50.836;5.356;2022-12-11T07:48:30;2.90;99.90
40822;DHT22;26542;50.836;5.356;2022-12-11T07:53:37;2.80;99.90
40822;DHT22;26542;50.836;5.356;2022-12-11T07:56:06;2.80;99.90
40822;DHT22;26542;50.836;5.356;2022-12-11T07:58:32;2.80;99.90
40822;DHT22;26542;50.836;5.356;2022-12-11T08:00:58;2.80;99.90
40822;DHT22;26542;50.836;5.356;2022-12-11T08:03:24;2.80;99.90
40822;DHT22;26542;50.836;5.356;2022-12-11T08:05:50;2.80;99.90
40822;DHT22;26542;50.836;5.356;2022-12-11T08:08:17;2.70;99.90
40822;DHT22;26542;50.836;5.356;2022-12-11T08:10:44;2.80;99.90
40822;DHT22;26542;50.836;5.356;2022-12-11T08:13:12;2.80;99.90
40822;DHT22;26542;50.836;5.356;2022-12-11T08:15:38;2.70;99.90
40822;DHT22;26542;50.836;5.356;2022-12-11T08:18:04;2.60;99.90
40822;DHT22;26542;50.836;5.356;2022-12-11T08:20:32;2.70;99.90
40822;DHT22;26542;50.836;5.356;2022-12-11T08:23:00;2.70;99.90
40822;DHT22;26542;50.836;5.356;2022-12-11T08:25:26;2.70;99.90
40822;DHT22;26542;50.836;5.356;2022-12-11T08:27:51;2.80;99.90
40822;DHT22;26542;50.836;5.356;2022-12-11T08:30:20;2.80;99.90
40822;DHT22;26542;50.836;5.356;2022-12-11T08:32:46;2.80;99.90
40822;DHT22;26542;50.836;5.356;2022-12-11T08:35:11;2.70;99.90
40822;DHT22;26542;50.836;5.356;2022-12-11T08:37:37;2.60;99.90
40822;DHT22;26542;50.836;5.356;2022-12-11T08:40:05;2.60;99.90
40822;DHT22;26542;50.836;5.356;2022-12-11T08:42:31;2.60;99.90
40822;DHT22;26542;50.836;5.356;2022-12-11T08:44:57;2.70;99.90
40822;DHT22;26542;50.836;5.356;2022-12-11T08:47:23;2.70;99.90
40822;DHT22;26542;50.836;5.356;2022-12-11T08:49:52;2.80;99.90
40822;DHT22;26542;50.836;5.356;2022-12-11T08:52:18;2.70;99.90
40822;DHT22;26542;50.836;5.356;2022-12-11T08:54:46;2.70;99.90
40822;DHT22;26542;50.836;5.356;2022-12-11T08:57:11;2.70;99.90
40822;DHT22;26542;50.836;5.356;2022-12-11T08:59:39;2.80;99.90
40822;DHT22;26542;50.836;5.356;2022-12-11T09:02:11;2.90;99.90
40822;DHT22;26542;50.836;5.356;2022-12-11T09:04:37;2.70;99.90
40822;DHT22;26542;50.836;5.356;2022-12-11T09:07:03;2.70;99.90
40822;DHT22;26542;50.836;5.356;2022-12-11T09:09:29;2.80;99.90
40822;DHT22;26542;50.836;5.356;2022-12-11T09:11:55;2.70;99.90
40822;DHT22;26542;50.836;5.356;2022-12-11T09:14:21;2.80;99.90
40822;DHT22;26542;50.836;5.356;2022-12-11T09:16:49;2.90;99.90
40822;DHT22;26542;50.836;5.356;2022-12-11T09:19:16;2.90;99.90
40822;DHT22;26542;50.836;5.356;2022-12-11T09:21:42;2.80;99.90
40822;DHT22;26542;50.836;5.356;2022-12-11T09:24:09;2.80;99.90
40822;DHT22;26542;50.836;5.356;2022-12-11T09:26:37;2.70;99.90
40822;DHT22;26542;50.836;5.356;2022-12-11T09:29:04;2.70;99.90
40822;DHT22;26542;50.836;5.356;2022-12-11T09:31:33;2.70;99.90
40822;DHT22;26542;50.836;5.356;2022-12-11T09:34:01;2.70;99.90
40822;DHT22;26542;50.836;5.356;2022-12-11T09:36:27;2.80;99.90
40822;DHT22;26542;50.836;5.356;2022-12-11T09:38:54;2.80;99.90
40822;DHT22;26542;50.836;5.356;2022-12-11T09:46:28;2.70;99.90
40822;DHT22;26542;50.836;5.356;2022-12-11T09:48:58;2.50;99.90
40822;DHT22;26542;50.836;5.356;2022-12-11T09:51:41;2.50;99.90
40822;DHT22;26542;50.836;5.356;2022-12-11T09:54:11;2.50;99.90
40822;DHT22;26542;50.836;5.356;2022-12-11T09:56:41;2.60;99.90
40822;DHT22;26542;50.836;5.356;2022-12-11T09:59:32;2.70;99.90
40822;DHT22;26542;50.836;5.356;2022-12-11T10:11:00;2.70;99.90
40822;DHT22;26542;50.836;5.356;2022-12-11T10:14:18;2.90;99.90
40822;DHT22;26542;50.836;5.356;2022-12-11T10:17:01;2.90;99.90
40822;DHT22;26542;50.836;5.356;2022-12-11T10:19:32;2.90;99.90
40822;DHT22;26542;50.836;5.356;2022-12-11T10:22:00;3.00;99.90
40822;DHT22;26542;50.836;5.356;2022-12-11T10:24:53;3.00;99.90
40822;DHT22;26542;50.836;5.356;2022-12-11T10:27:22;3.00;99.90
40822;DHT22;26542;50.836;5.356;2022-12-11T10:29:57;3.00;99.90
40822;DHT22;26542;50.836;5.356;2022-12-11T10:32:34;2.90;99.90
40822;DHT22;26542;50.836;5.356;2022-12-11T10:35:05;2.90;99.90
40822;DHT22;26542;50.836;5.356;2022-12-11T10:37:35;3.00;99.90
40822;DHT22;26542;50.836;5.356;2022-12-11T10:40:01;2.90;99.90
40822;DHT22;26542;50.836;5.356;2022-12-11T10:42:27;3.00;99.90
40822;DHT22;26542;50.836;5.356;2022-12-11T10:45:04;2.90;99.90
40822;DHT22;26542;50.836;5.356;2022-12-11T10:47:30;2.90;99.90
40822;DHT22;26542;50.836;5.356;2022-12-11T10:50:03;2.80;99.90
40822;DHT22;26542;50.836;5.356;2022-12-11T10:52:34;2.90;99.90
40822;DHT22;26542;50.836;5.356;2022-12-11T10:55:23;3.00;99.90
40822;DHT22;26542;50.836;5.356;2022-12-11T10:57:57;3.10;99.90
40822;DHT22;26542;50.836;5.356;2022-12-11T11:00:40;3.10;99.90
40822;DHT22;26542;50.836;5.356;2022-12-11T11:03:22;3.20;99.90
40822;DHT22;26542;50.836;5.356;2022-12-11T11:05:49;3.30;99.90
40822;DHT22;26542;50.836;5.356;2022-12-11T11:08:39;3.40;99.90
40822;DHT22;26542;50.836;5.356;2022-12-11T11:11:05;3.50;99.90
40822;DHT22;26542;50.836;5.356;2022-12-11T11:13:33;3.60;99.90
40822;DHT22;26542;50.836;5.356;2022-12-11T11:16:10;3.50;99.90
40822;DHT22;26542;50.836;5.356;2022-12-11T11:18:40;3.40;99.90
40822;DHT22;26542;50.836;5.356;2022-12-11T11:21:14;3.40;99.90
40822;DHT22;26542;50.836;5.356;2022-12-11T11:23:42;3.50;99.90
40822;DHT22;26542;50.836;5.356;2022-12-11T11:26:08;3.50;99.90
40822;DHT22;26542;50.836;5.356;2022-12-11T11:28:41;3.70;99.90
40822;DHT22;26542;50.836;5.356;2022-12-11T11:31:16;3.70;99.90
40822;DHT22;26542;50.836;5.356;2022-12-11T11:34:06;3.70;99.90
40822;DHT22;26542;50.836;5.356;2022-12-11T11:36:34;3.70;99.90
40822;DHT22;26542;50.836;5.356;2022-12-11T11:39:03;3.70;99.90
40822;DHT22;26542;50.836;5.356;2022-12-11T11:41:50;3.80;99.90
40822;DHT22;26542;50.836;5.356;2022-12-11T11:44:26;3.50;99.90
40822;DHT22;26542;50.836;5.356;2022-12-11T11:47:20;3.40;99.90
40822;DHT22;26542;50.836;5.356;2022-12-11T11:51:32;3.60;99.90
40822;DHT22;26542;50.836;5.356;2022-12-11T11:53:49;3.20;99.90
40822;DHT22;26542;50.836;5.356;2022-12-11T11:58:52;3.70;99.90
40822;DHT22;26542;50.836;5.356;2022-12-11T12:01:20;3.70;99.90
40822;DHT22;26542;50.836;5.356;2022-12-11T12:03:48;3.60;99.90
40822;DHT22;26542;50.836;5.356;2022-12-11T12:09:24;3.80;99.90
40822;DHT22;26542;50.836;5.356;2022-12-11T12:14:34;3.80;99.90
40822;DHT22;26542;50.836;5.356;2022-12-11T12:36:17;3.50;99.90
40822;DHT22;26542;50.836;5.356;2022-12-11T12:42:10;3.60;99.90
40822;DHT22;26542;50.836;5.356;2022-12-11T12:44:57;3.70;99.90
40822;DHT22;26542;50.836;5.356;2022-12-11T12:47:25;3.70;99.90
40822;DHT22;26542;50.836;5.356;2022-12-11T12:49:52;3.70;99.90
40822;DHT22;26542;50.836;5.356;2022-12-11T12:52:32;3.80;99.90
40822;DHT22;26542;50.836;5.356;2022-12-11T12:57:45;3.90;99.90
40822;DHT22;26542;50.836;5.356;2022-12-11T13:00:24;3.90;99.90
40822;DHT22;26542;50.836;5.356;2022-12-11T13:02:52;3.90;99.90
40822;DHT22;26542;50.836;5.356;2022-12-11T13:05:23;3.90;99.90
40822;DHT22;26542;50.836;5.356;2022-12-11T13:07:54;4.10;99.90
40822;DHT22;26542;50.836;5.356;2022-12-11T13:10:39;4.20;99.90
40822;DHT22;26542;50.836;5.356;2022-12-11T13:13:29;4.10;99.90
40822;DHT22;26542;50.836;5.356;2022-12-11T13:18:46;4.20;99.90
40822;DHT22;26542;50.836;5.356;2022-12-11T13:21:37;4.20;99.90
40822;DHT22;26542;50.836;5.356;2022-12-11T13:26:37;4.10;99.90
40822;DHT22;26542;50.836;5.356;2022-12-11T13:29:05;4.00;99.90
40822;DHT22;26542;50.836;5.356;2022-12-11T13:31:36;3.90;99.90
40822;DHT22;26542;50.836;5.356;2022-12-11T13:34:20;4.00;99.90
40822;DHT22;26542;50.836;5.356;2022-12-11T13:36:51;4.00;99.90
40822;DHT22;26542;50.836;5.356;2022-12-11T13:39:22;4.10;99.90
40822;DHT22;26542;50.836;5.356;2022-12-11T13:41:53;4.20;99.90
40822;DHT22;26542;50.836;5.356;2022-12-11T13:44:25;4.20;99.90
40822;DHT22;26542;50.836;5.356;2022-12-11T13:46:57;4.10;99.90
40822;DHT22;26542;50.836;5.356;2022-12-11T13:49:29;4.00;99.90
40822;DHT22;26542;50.836;5.356;2022-12-11T13:52:01;4.00;99.90
40822;DHT22;26542;50.836;5.356;2022-12-11T13:54:31;3.90;99.90
40822;DHT22;26542;50.836;5.356;2022-12-11T13:59:40;3.90;99.90
40822;DHT22;26542;50.836;5.356;2022-12-11T14:02:17;3.90;99.90
40822;DHT22;26542;50.836;5.356;2022-12-11T14:04:44;3.90;99.90
40822;DHT22;26542;50.836;5.356;2022-12-11T14:07:10;3.90;99.90
40822;DHT22;26542;50.836;5.356;2022-12-11T14:09:41;3.90;99.90
40822;DHT22;26542;50.836;5.356;2022-12-11T14:12:18;4.10;99.90
40822;DHT22;26542;50.836;5.356;2022-12-11T14:14:54;4.10;99.90
40822;DHT22;26542;50.836;5.356;2022-12-11T14:17:29;4.10;99.90
40822;DHT22;26542;50.836;5.356;2022-12-11T14:19:58;4.10;99.90
40822;DHT22;26542;50.836;5.356;2022-12-11T14:22:27;4.00;99.90
40822;DHT22;26542;50.836;5.356;2022-12-11T14:24:56;4.10;99.90
40822;DHT22;26542;50.836;5.356;2022-12-11T14:27:23;4.00;99.90
40822;DHT22;26542;50.836;5.356;2022-12-11T14:29:50;4.10;99.90
40822;DHT22;26542;50.836;5.356;2022-12-11T14:32:31;4.20;99.90
40822;DHT22;26542;50.836;5.356;2022-12-11T14:35:02;4.20;99.90
40822;DHT22;26542;50.836;5.356;2022-12-11T14:37:33;4.30;99.90
40822;DHT22;26542;50.836;5.356;2022-12-11T14:40:15;4.30;99.90
40822;DHT22;26542;50.836;5.356;2022-12-11T14:42:50;4.40;99.90
40822;DHT22;26542;50.836;5.356;2022-12-11T14:45:33;4.40;99.90
40822;DHT22;26542;50.836;5.356;2022-12-11T14:48:03;4.30;99.90
40822;DHT22;26542;50.836;5.356;2022-12-11T14:50:41;4.30;99.90
40822;DHT22;26542;50.836;5.356;2022-12-11T14:53:18;4.30;99.90
40822;DHT22;26542;50.836;5.356;2022-12-11T14:55:46;4.30;99.90
40822;DHT22;26542;50.836;5.356;2022-12-11T14:58:22;4.30;99.90
40822;DHT22;26542;50.836;5.356;2022-12-11T15:01:00;4.40;99.90
40822;DHT22;26542;50.836;5.356;2022-12-11T15:03:37;4.40;99.90
40822;DHT22;26542;50.836;5.356;2022-12-11T15:06:26;4.40;99.90
40822;DHT22;26542;50.836;5.356;2022-12-11T15:08:53;4.40;99.90
40822;DHT22;26542;50.836;5.356;2022-12-11T15:11:19;4.50;99.90
40822;DHT22;26542;50.836;5.356;2022-12-11T15:13:56;4.40;99.90
40822;DHT22;26542;50.836;5.356;2022-12-11T15:16:26;4.50;99.90
40822;DHT22;26542;50.836;5.356;2022-12-11T15:18:54;4.40;99.90
40822;DHT22;26542;50.836;5.356;2022-12-11T15:21:32;4.30;99.90
40822;DHT22;26542;50.836;5.356;2022-12-11T15:24:01;4.30;99.90
40822;DHT22;26542;50.836;5.356;2022-12-11T15:26:43;4.20;99.90
40822;DHT22;26542;50.836;5.356;2022-12-11T15:34:45;4.20;99.90
40822;DHT22;26542;50.836;5.356;2022-12-11T15:37:31;4.20;99.90
40822;DHT22;26542;50.836;5.356;2022-12-11T15:39:59;4.10;99.90
40822;DHT22;26542;50.836;5.356;2022-12-11T15:42:34;4.10;99.90
40822;DHT22;26542;50.836;5.356;2022-12-11T15:45:00;4.10;99.90
40822;DHT22;26542;50.836;5.356;2022-12-11T15:47:28;4.20;99.90
40822;DHT22;26542;50.836;5.356;2022-12-11T15:52:44;4.10;99.90
40822;DHT22;26542;50.836;5.356;2022-12-11T15:55:11;4.10;99.90
40822;DHT22;26542;50.836;5.356;2022-12-11T15:57:37;4.10;99.90
40822;DHT22;26542;50.836;5.356;2022-12-11T16:00:05;4.00;99.90
40822;DHT22;26542;50.836;5.356;2022-12-11T16:02:34;4.00;99.90
40822;DHT22;26542;50.836;5.356;2022-12-11T16:04:59;4.00;99.90
40822;DHT22;26542;50.836;5.356;2022-12-11T16:07:28;4.00;99.90
40822;DHT22;26542;50.836;5.356;2022-12-11T16:09:54;4.20;99.90
40822;DHT22;26542;50.836;5.356;2022-12-11T16:12:19;4.30;99.90
40822;DHT22;26542;50.836;5.356;2022-12-11T16:14:47;4.00;99.90
40822;DHT22;26542;50.836;5.356;2022-12-11T16:17:17;4.00;99.90
40822;DHT22;26542;50.836;5.356;2022-12-11T16:19:43;3.90;99.90
40822;DHT22;26542;50.836;5.356;2022-12-11T16:22:11;3.90;99.90
40822;DHT22;26542;50.836;5.356;2022-12-11T16:24:38;4.00;99.90
40822;DHT22;26542;50.836;5.356;2022-12-11T16:27:05;4.00;99.90
40822;DHT22;26542;50.836;5.356;2022-12-11T16:29:35;3.90;99.90
40822;DHT22;26542;50.836;5.356;2022-12-11T16:32:01;3.90;99.90
40822;DHT22;26542;50.836;5.356;2022-12-11T16:34:27;3.90;99.90
40822;DHT22;26542;50.836;5.356;2022-12-11T16:36:53;3.90;99.90
40822;DHT22;26542;50.836;5.356;2022-12-11T16:39:20;4.10;99.90
40822;DHT22;26542;50.836;5.356;2022-12-11T16:41:46;3.90;99.90
40822;DHT22;26542;50.836;5.356;2022-12-11T16:44:12;3.90;99.90
40822;DHT22;26542;50.836;5.356;2022-12-11T16:46:40;3.90;99.90
40822;DHT22;26542;50.836;5.356;2022-12-11T16:49:05;3.80;99.90
40822;DHT22;26542;50.836;5.356;2022-12-11T16:51:32;3.80;99.90
40822;DHT22;26542;50.836;5.356;2022-12-11T16:53:57;3.90;99.90
40822;DHT22;26542;50.836;5.356;2022-12-11T16:56:23;3.80;99.90
40822;DHT22;26542;50.836;5.356;2022-12-11T16:58:50;3.80;99.90
40822;DHT22;26542;50.836;5.356;2022-12-11T17:01:21;3.80;99.90
40822;DHT22;26542;50.836;5.356;2022-12-11T17:03:47;3.80;99.90
40822;DHT22;26542;50.836;5.356;2022-12-11T17:06:14;3.80;99.90
40822;DHT22;26542;50.836;5.356;2022-12-11T17:08:43;3.80;99.90
40822;DHT22;26542;50.836;5.356;2022-12-11T17:11:13;3.70;99.90
40822;DHT22;26542;50.836;5.356;2022-12-11T17:13:41;3.70;99.90
40822;DHT22;26542;50.836;5.356;2022-12-11T17:16:13;3.70;99.90
40822;DHT22;26542;50.836;5.356;2022-12-11T17:18:41;3.70;99.90
40822;DHT22;26542;50.836;5.356;2022-12-11T17:21:18;3.80;99.90
40822;DHT22;26542;50.836;5.356;2022-12-11T17:23:44;3.80;99.90
40822;DHT22;26542;50.836;5.356;2022-12-11T17:26:10;3.70;99.90
40822;DHT22;26542;50.836;5.356;2022-12-11T17:28:37;3.80;99.90
40822;DHT22;26542;50.836;5.356;2022-12-11T17:31:14;3.70;99.90